createdAt,value
2023-05-17T00:00:17.474Z,16.90
2023-05-17T00:00:39.335Z,16.89
2023-05-17T00:01:01.096Z,16.90
2023-05-17T00:01:23.108Z,16.88
2023-05-17T00:01:45.204Z,16.89
2023-05-17T00:02:07.080Z,16.88
2023-05-17T00:02:28.797Z,16.88
2023-05-17T00:02:50.993Z,16.88
2023-05-17T00:03:12.799Z,16.88
2023-05-17T00:03:34.621Z,16.87
2023-05-17T00:03:56.933Z,16.87
2023-05-17T00:04:18.707Z,16.88
2023-05-17T00:04:40.952Z,16.88
2023-05-17T00:05:03.220Z,16.87
2023-05-17T00:05:25.132Z,16.87
2023-05-17T00:05:47.023Z,16.87
2023-05-17T00:06:09.205Z,16.86
2023-05-17T00:06:32.016Z,16.85
2023-05-17T00:06:53.964Z,16.86
2023-05-17T00:07:16.158Z,16.86
2023-05-17T00:07:38.044Z,16.85
2023-05-17T00:08:00.047Z,16.86
2023-05-17T00:08:21.832Z,16.85
2023-05-17T00:08:43.710Z,16.85
2023-05-17T00:09:05.593Z,16.85
2023-05-17T00:09:27.428Z,16.85
2023-05-17T00:09:49.376Z,16.84
2023-05-17T00:10:11.768Z,16.85
2023-05-17T00:10:33.753Z,16.84
2023-05-17T00:10:55.646Z,16.84
2023-05-17T00:11:17.386Z,16.84
2023-05-17T00:11:39.164Z,16.84
2023-05-17T00:12:01.099Z,16.85
2023-05-17T00:12:22.887Z,16.83
2023-05-17T00:12:44.773Z,16.84
2023-05-17T00:13:06.507Z,16.83
2023-05-17T00:13:28.468Z,16.83
2023-05-17T00:13:50.211Z,16.83
2023-05-17T00:14:12.048Z,16.83
2023-05-17T00:14:33.820Z,16.83
2023-05-17T00:14:55.783Z,16.83
2023-05-17T00:15:17.690Z,16.83
2023-05-17T00:15:39.562Z,16.82
2023-05-17T00:16:01.365Z,16.82
2023-05-17T00:16:23.125Z,16.82
2023-05-17T00:16:45.119Z,16.82
2023-05-17T00:17:06.894Z,16.82
2023-05-17T00:17:29.023Z,16.82
2023-05-17T00:17:50.960Z,16.81
2023-05-17T00:18:12.969Z,16.81
2023-05-17T00:18:35.086Z,16.80
2023-05-17T00:18:57.336Z,16.80
2023-05-17T00:19:21.870Z,16.79
2023-05-17T00:19:43.761Z,16.79
2023-05-17T00:20:06.214Z,16.79
2023-05-17T00:20:28.182Z,16.79
2023-05-17T00:20:49.987Z,16.78
2023-05-17T00:21:11.843Z,16.78
2023-05-17T00:21:33.625Z,16.78
2023-05-17T00:21:55.450Z,16.77
2023-05-17T00:22:17.298Z,16.77
2023-05-17T00:22:41.065Z,16.77
2023-05-17T00:23:03.225Z,16.77
2023-05-17T00:23:25.109Z,16.77
2023-05-17T00:23:46.993Z,16.77
2023-05-17T00:24:09.564Z,16.77
2023-05-17T00:24:31.416Z,16.76
2023-05-17T00:24:53.155Z,16.76
2023-05-17T00:25:15.052Z,16.76
2023-05-17T00:25:37.043Z,16.76
2023-05-17T00:25:59.028Z,16.75
2023-05-17T00:26:20.814Z,16.75
2023-05-17T00:26:42.700Z,16.74
2023-05-17T00:27:04.740Z,16.74
2023-05-17T00:27:26.581Z,16.74
2023-05-17T00:27:48.389Z,16.74
2023-05-17T00:28:10.249Z,16.73
2023-05-17T00:28:32.139Z,16.74
2023-05-17T00:28:54.021Z,16.74
2023-05-17T00:29:15.808Z,16.73
2023-05-17T00:29:37.622Z,16.74
2023-05-17T00:29:59.579Z,16.73
2023-05-17T00:30:21.465Z,16.73
2023-05-17T00:30:43.362Z,16.73
2023-05-17T00:31:05.395Z,16.73
2023-05-17T00:31:27.137Z,16.73
2023-05-17T00:31:49.014Z,16.73
2023-05-17T00:32:10.823Z,16.72
2023-05-17T00:32:32.724Z,16.72
2023-05-17T00:32:54.771Z,16.72
2023-05-17T00:33:16.868Z,16.72
2023-05-17T00:33:38.756Z,16.72
2023-05-17T00:34:00.745Z,16.71
2023-05-17T00:34:22.624Z,16.72
2023-05-17T00:34:45.078Z,16.71
2023-05-17T00:35:07.380Z,16.71
2023-05-17T00:35:29.474Z,16.71
2023-05-17T00:35:51.438Z,16.71
2023-05-17T00:36:13.742Z,16.71
2023-05-17T00:36:35.613Z,16.70
2023-05-17T00:36:57.478Z,16.70
2023-05-17T00:37:19.362Z,16.70
2023-05-17T00:37:41.658Z,16.69
2023-05-17T00:38:03.485Z,16.70
2023-05-17T00:38:25.839Z,16.69
2023-05-17T00:38:47.725Z,16.69
2023-05-17T00:39:09.502Z,16.69
2023-05-17T00:39:32.423Z,16.68
2023-05-17T00:39:54.408Z,16.68
2023-05-17T00:40:16.531Z,16.68
2023-05-17T00:40:38.389Z,16.68
2023-05-17T00:41:00.121Z,16.67
2023-05-17T00:41:21.875Z,16.67
2023-05-17T00:41:43.741Z,16.67
2023-05-17T00:42:05.943Z,16.66
2023-05-17T00:42:27.929Z,16.66
2023-05-17T00:42:50.528Z,16.66
2023-05-17T00:43:12.415Z,16.66
2023-05-17T00:43:34.299Z,16.66
2023-05-17T00:43:56.110Z,16.66
2023-05-17T00:44:17.888Z,16.66
2023-05-17T00:44:39.759Z,16.66
2023-05-17T00:45:01.662Z,16.65
2023-05-17T00:45:23.552Z,16.65
2023-05-17T00:45:45.668Z,16.65
2023-05-17T00:46:07.610Z,16.65
2023-05-17T00:46:30.688Z,16.65
2023-05-17T00:46:52.618Z,16.65
2023-05-17T00:47:14.669Z,16.64
2023-05-17T00:47:36.920Z,16.65
2023-05-17T00:47:59.000Z,16.64
2023-05-17T00:48:26.393Z,16.64
2023-05-17T00:48:48.414Z,16.64
2023-05-17T00:49:11.099Z,16.63
2023-05-17T00:49:32.876Z,16.63
2023-05-17T00:49:54.769Z,16.63
2023-05-17T00:50:16.858Z,16.63
2023-05-17T00:50:39.655Z,16.63
2023-05-17T00:51:01.484Z,16.63
2023-05-17T00:51:23.279Z,16.63
2023-05-17T00:51:45.322Z,16.63
2023-05-17T00:52:07.081Z,16.62
2023-05-17T00:52:28.887Z,16.62
2023-05-17T00:52:51.493Z,16.62
2023-05-17T00:53:16.318Z,16.62
2023-05-17T00:53:38.130Z,16.62
2023-05-17T00:54:00.156Z,16.62
2023-05-17T00:54:22.520Z,16.62
2023-05-17T00:54:44.359Z,16.62
2023-05-17T00:55:06.373Z,16.61
2023-05-17T00:55:28.558Z,16.61
2023-05-17T00:55:50.682Z,16.61
2023-05-17T00:56:12.490Z,16.61
2023-05-17T00:56:34.274Z,16.61
2023-05-17T00:56:57.986Z,16.60
2023-05-17T00:57:19.860Z,16.60
2023-05-17T00:57:41.626Z,16.60
2023-05-17T00:58:03.509Z,16.59
2023-05-17T00:58:25.518Z,16.60
2023-05-17T00:58:47.405Z,16.59
2023-05-17T00:59:09.150Z,16.59
2023-05-17T00:59:31.007Z,16.59
2023-05-17T00:59:53.016Z,16.59
2023-05-17T01:00:15.058Z,16.59
2023-05-17T01:00:37.043Z,16.59
2023-05-17T01:01:00.023Z,16.58
2023-05-17T01:01:22.204Z,16.58
2023-05-17T01:01:44.028Z,16.58
2023-05-17T01:02:07.494Z,16.57
2023-05-17T01:02:29.753Z,16.57
2023-05-17T01:02:51.918Z,16.57
2023-05-17T01:03:14.157Z,16.57
2023-05-17T01:03:36.186Z,16.56
2023-05-17T01:03:58.292Z,16.56
2023-05-17T01:04:20.414Z,16.56
2023-05-17T01:04:42.450Z,16.56
2023-05-17T01:05:04.995Z,16.56
2023-05-17T01:05:29.027Z,16.56
2023-05-17T01:05:51.335Z,16.55
2023-05-17T01:06:13.221Z,16.55
2023-05-17T01:06:35.926Z,16.55
2023-05-17T01:06:57.665Z,16.54
2023-05-17T01:07:19.701Z,16.54
2023-05-17T01:07:42.048Z,16.54
2023-05-17T01:08:04.189Z,16.53
2023-05-17T01:08:25.942Z,16.53
2023-05-17T01:08:47.810Z,16.53
2023-05-17T01:09:09.587Z,16.53
2023-05-17T01:09:31.433Z,16.53
2023-05-17T01:09:53.199Z,16.53
2023-05-17T01:10:14.932Z,16.52
2023-05-17T01:10:38.871Z,16.52
2023-05-17T01:11:00.821Z,16.51
2023-05-17T01:11:31.430Z,16.51
2023-05-17T01:11:56.375Z,16.51
2023-05-17T01:12:30.746Z,16.51
2023-05-17T01:12:58.639Z,16.50
2023-05-17T01:13:23.930Z,16.50
2023-05-17T01:14:01.477Z,16.49
2023-05-17T01:14:29.385Z,16.48
2023-05-17T01:14:56.619Z,16.49
2023-05-17T01:15:28.881Z,16.47
2023-05-17T01:15:54.036Z,16.47
2023-05-17T01:16:19.228Z,16.47
2023-05-17T01:16:43.745Z,16.46
2023-05-17T01:17:13.739Z,16.46
2023-05-17T01:17:41.372Z,16.45
2023-05-17T01:18:12.586Z,16.45
2023-05-17T01:18:39.647Z,16.44
2023-05-17T01:19:20.589Z,16.43
2023-05-17T01:19:50.187Z,16.43
2023-05-17T01:20:28.202Z,16.42
2023-05-17T01:20:50.221Z,16.41
2023-05-17T01:21:32.979Z,16.41
2023-05-17T01:21:58.135Z,16.40
2023-05-17T01:22:33.420Z,16.40
2023-05-17T01:22:57.773Z,16.39
2023-05-17T01:23:31.510Z,16.39
2023-05-17T01:24:00.255Z,16.38
2023-05-17T01:24:22.135Z,16.38
2023-05-17T01:25:02.332Z,16.38
2023-05-17T01:25:55.311Z,16.37
2023-05-17T01:26:18.566Z,16.37
2023-05-17T01:26:41.344Z,16.37
2023-05-17T01:27:03.224Z,16.36
2023-05-17T01:27:25.386Z,16.36
2023-05-17T01:27:49.224Z,16.35
2023-05-17T01:28:11.849Z,16.35
2023-05-17T01:28:33.836Z,16.35
2023-05-17T01:28:55.766Z,16.35
2023-05-17T01:29:17.524Z,16.34
2023-05-17T01:29:39.248Z,16.35
2023-05-17T01:30:01.107Z,16.34
2023-05-17T01:30:23.170Z,16.33
2023-05-17T01:30:45.566Z,16.33
2023-05-17T01:31:07.758Z,16.33
2023-05-17T01:31:32.103Z,16.32
2023-05-17T01:31:53.863Z,16.32
2023-05-17T01:32:16.380Z,16.32
2023-05-17T01:32:39.442Z,16.32
2023-05-17T01:33:02.886Z,16.31
2023-05-17T01:33:24.991Z,16.31
2023-05-17T01:33:47.037Z,16.30
2023-05-17T01:34:09.205Z,16.29
2023-05-17T01:34:30.983Z,16.29
2023-05-17T01:34:52.893Z,16.28
2023-05-17T01:35:14.772Z,16.28
2023-05-17T01:35:36.533Z,16.27
2023-05-17T01:35:58.417Z,16.27
2023-05-17T01:36:20.826Z,16.26
2023-05-17T01:36:43.388Z,16.27
2023-05-17T01:37:05.415Z,16.26
2023-05-17T01:37:27.406Z,16.26
2023-05-17T01:37:49.195Z,16.25
2023-05-17T01:38:11.172Z,16.26
2023-05-17T01:38:32.989Z,16.25
2023-05-17T01:38:54.953Z,16.25
2023-05-17T01:39:16.852Z,16.25
2023-05-17T01:39:38.627Z,16.24
2023-05-17T01:40:00.507Z,16.24
2023-05-17T01:40:22.392Z,16.24
2023-05-17T01:40:48.516Z,16.23
2023-05-17T01:41:18.548Z,16.23
2023-05-17T01:41:40.913Z,16.23
2023-05-17T01:42:07.769Z,16.23
2023-05-17T01:42:31.258Z,16.22
2023-05-17T01:42:57.856Z,16.21
2023-05-17T01:43:39.856Z,16.21
2023-05-17T01:44:13.704Z,16.21
2023-05-17T01:44:40.121Z,16.19
2023-05-17T01:45:17.660Z,16.19
2023-05-17T01:45:44.456Z,16.19
2023-05-17T01:46:18.312Z,16.18
2023-05-17T01:46:41.117Z,16.17
2023-05-17T01:47:06.517Z,16.17
2023-05-17T01:47:31.089Z,16.16
2023-05-17T01:48:12.224Z,16.16
2023-05-17T01:48:37.722Z,16.16
2023-05-17T01:49:05.422Z,16.15
2023-05-17T01:49:35.424Z,16.14
2023-05-17T01:49:57.278Z,16.14
2023-05-17T01:50:19.882Z,16.13
2023-05-17T01:50:41.771Z,16.12
2023-05-17T01:51:04.789Z,16.12
2023-05-17T01:51:28.916Z,16.12
2023-05-17T01:52:16.913Z,16.11
2023-05-17T01:52:44.975Z,16.11
2023-05-17T01:53:19.265Z,16.10
2023-05-17T01:53:43.305Z,16.10
2023-05-17T01:54:09.688Z,16.09
2023-05-17T01:54:32.403Z,16.09
2023-05-17T01:54:54.709Z,16.09
2023-05-17T01:55:35.318Z,16.08
2023-05-17T01:55:57.796Z,16.08
2023-05-17T01:56:27.463Z,16.07
2023-05-17T01:56:51.906Z,16.08
2023-05-17T01:57:13.897Z,16.08
2023-05-17T01:57:36.851Z,16.07
2023-05-17T01:57:59.411Z,16.07
2023-05-17T01:58:21.954Z,16.07
2023-05-17T01:58:45.841Z,16.06
2023-05-17T01:59:07.731Z,16.06
2023-05-17T01:59:29.473Z,16.06
2023-05-17T01:59:51.391Z,16.06
2023-05-17T02:00:13.694Z,16.06
2023-05-17T02:00:39.390Z,16.06
2023-05-17T02:01:01.344Z,16.06
2023-05-17T02:01:23.236Z,16.05
2023-05-17T02:01:45.121Z,16.05
2023-05-17T02:02:09.174Z,16.05
2023-05-17T02:02:31.256Z,16.04
2023-05-17T02:02:53.154Z,16.04
2023-05-17T02:03:18.885Z,16.04
2023-05-17T02:03:40.850Z,16.03
2023-05-17T02:04:02.942Z,16.03
2023-05-17T02:04:26.698Z,16.04
2023-05-17T02:04:49.041Z,16.03
2023-05-17T02:05:11.398Z,16.03
2023-05-17T02:05:35.136Z,16.02
2023-05-17T02:05:57.022Z,16.02
2023-05-17T02:06:18.916Z,16.02
2023-05-17T02:06:40.898Z,16.02
2023-05-17T02:07:03.189Z,16.01
2023-05-17T02:07:24.931Z,16.01
2023-05-17T02:07:49.962Z,16.01
2023-05-17T02:08:12.872Z,16.01
2023-05-17T02:08:34.829Z,16.01
2023-05-17T02:09:00.605Z,16.00
2023-05-17T02:09:22.348Z,16.01
2023-05-17T02:09:44.276Z,16.01
2023-05-17T02:10:06.316Z,16.00
2023-05-17T02:10:28.254Z,16.00
2023-05-17T02:10:51.675Z,16.00
2023-05-17T02:11:13.396Z,16.00
2023-05-17T02:11:36.376Z,15.99
2023-05-17T02:11:58.176Z,16.00
2023-05-17T02:12:20.145Z,15.99
2023-05-17T02:12:42.027Z,15.99
2023-05-17T02:13:04.239Z,15.99
2023-05-17T02:13:26.117Z,15.99
2023-05-17T02:13:47.999Z,15.99
2023-05-17T02:14:09.885Z,15.98
2023-05-17T02:14:31.770Z,15.98
2023-05-17T02:14:53.516Z,15.98
2023-05-17T02:15:16.805Z,15.98
2023-05-17T02:15:38.658Z,15.97
2023-05-17T02:16:01.679Z,15.98
2023-05-17T02:16:23.454Z,15.97
2023-05-17T02:16:45.351Z,15.97
2023-05-17T02:17:07.619Z,15.97
2023-05-17T02:17:29.486Z,15.97
2023-05-17T02:17:51.368Z,15.97
2023-05-17T02:18:13.611Z,15.96
2023-05-17T02:18:38.080Z,15.96
2023-05-17T02:19:00.168Z,15.96
2023-05-17T02:19:22.129Z,15.96
2023-05-17T02:19:44.022Z,15.96
2023-05-17T02:20:09.383Z,15.96
2023-05-17T02:20:31.575Z,15.96
2023-05-17T02:20:53.973Z,15.96
2023-05-17T02:21:18.616Z,15.97
2023-05-17T02:21:40.505Z,15.97
2023-05-17T02:22:02.394Z,15.96
2023-05-17T02:22:25.100Z,15.97
2023-05-17T02:22:46.982Z,15.97
2023-05-17T02:23:08.975Z,15.97
2023-05-17T02:23:30.714Z,15.97
2023-05-17T02:23:52.595Z,15.97
2023-05-17T02:24:14.561Z,15.97
2023-05-17T02:24:36.639Z,15.97
2023-05-17T02:25:00.252Z,15.97
2023-05-17T02:25:21.985Z,15.98
2023-05-17T02:25:43.824Z,15.98
2023-05-17T02:26:05.596Z,15.98
2023-05-17T02:26:28.932Z,15.98
2023-05-17T02:26:51.151Z,15.98
2023-05-17T02:27:13.106Z,15.98
2023-05-17T02:27:34.908Z,15.99
2023-05-17T02:27:56.984Z,15.99
2023-05-17T02:28:18.798Z,15.99
2023-05-17T02:28:40.564Z,16.00
2023-05-17T02:29:02.333Z,15.99
2023-05-17T02:29:26.060Z,15.99
2023-05-17T02:29:47.871Z,16.00
2023-05-17T02:30:09.910Z,16.00
2023-05-17T02:30:31.943Z,16.00
2023-05-17T02:30:54.351Z,15.99
2023-05-17T02:31:16.312Z,16.00
2023-05-17T02:31:38.199Z,16.00
2023-05-17T02:32:00.097Z,16.00
2023-05-17T02:32:22.305Z,16.01
2023-05-17T02:32:44.177Z,16.01
2023-05-17T02:33:06.346Z,16.01
2023-05-17T02:33:28.601Z,16.01
2023-05-17T02:33:51.587Z,16.02
2023-05-17T02:34:13.553Z,16.02
2023-05-17T02:34:35.372Z,16.02
2023-05-17T02:34:57.110Z,16.02
2023-05-17T02:35:19.009Z,16.02
2023-05-17T02:35:41.005Z,16.02
2023-05-17T02:36:02.892Z,16.03
2023-05-17T02:36:24.622Z,16.03
2023-05-17T02:36:47.005Z,16.03
2023-05-17T02:37:08.766Z,16.03
2023-05-17T02:37:32.028Z,16.03
2023-05-17T02:37:53.959Z,16.04
2023-05-17T02:38:16.163Z,16.04
2023-05-17T02:38:37.918Z,16.03
2023-05-17T02:39:00.496Z,16.04
2023-05-17T02:39:22.322Z,16.03
2023-05-17T02:39:44.321Z,16.04
2023-05-17T02:40:09.662Z,16.04
2023-05-17T02:40:31.564Z,16.04
2023-05-17T02:40:53.292Z,16.04
2023-05-17T02:41:15.290Z,16.05
2023-05-17T02:41:37.224Z,16.04
2023-05-17T02:41:59.115Z,16.05
2023-05-17T02:42:20.998Z,16.06
2023-05-17T02:42:43.503Z,16.06
2023-05-17T02:43:05.509Z,16.06
2023-05-17T02:43:31.367Z,16.06
2023-05-17T02:43:53.179Z,16.07
2023-05-17T02:44:15.033Z,16.07
2023-05-17T02:44:36.801Z,16.08
2023-05-17T02:44:58.554Z,16.08
2023-05-17T02:45:20.408Z,16.08
2023-05-17T02:45:43.565Z,16.09
2023-05-17T02:46:07.637Z,16.09
2023-05-17T02:46:29.427Z,16.10
2023-05-17T02:46:51.471Z,16.10
2023-05-17T02:47:13.584Z,16.10
2023-05-17T02:47:35.666Z,16.11
2023-05-17T02:47:58.005Z,16.12
2023-05-17T02:48:20.019Z,16.12
2023-05-17T02:48:41.891Z,16.12
2023-05-17T02:49:03.949Z,16.13
2023-05-17T02:49:25.828Z,16.13
2023-05-17T02:49:48.400Z,16.13
2023-05-17T02:50:10.381Z,16.14
2023-05-17T02:50:32.423Z,16.14
2023-05-17T02:50:54.529Z,16.14
2023-05-17T02:51:16.555Z,16.14
2023-05-17T02:51:38.506Z,16.15
2023-05-17T02:52:01.197Z,16.15
2023-05-17T02:52:23.316Z,16.16
2023-05-17T02:52:45.193Z,16.16
2023-05-17T02:53:06.980Z,16.15
2023-05-17T02:53:28.853Z,16.16
2023-05-17T02:53:50.842Z,16.16
2023-05-17T02:54:13.129Z,16.16
2023-05-17T02:54:35.083Z,16.17
2023-05-17T02:54:57.008Z,16.17
2023-05-17T02:55:18.893Z,16.17
2023-05-17T02:55:40.884Z,16.17
2023-05-17T02:56:02.778Z,16.17
2023-05-17T02:56:24.755Z,16.17
2023-05-17T02:56:46.768Z,16.17
2023-05-17T02:57:09.027Z,16.17
2023-05-17T02:57:30.929Z,16.17
2023-05-17T02:57:52.853Z,16.17
2023-05-17T02:58:15.828Z,16.17
2023-05-17T02:58:37.710Z,16.17
2023-05-17T02:59:01.410Z,16.18
2023-05-17T02:59:23.737Z,16.17
2023-05-17T02:59:46.138Z,16.17
2023-05-17T03:00:09.425Z,16.18
2023-05-17T03:00:31.350Z,16.17
2023-05-17T03:00:53.192Z,16.18
2023-05-17T03:01:15.220Z,16.18
2023-05-17T03:01:37.721Z,16.18
2023-05-17T03:01:59.811Z,16.18
2023-05-17T03:02:21.784Z,16.18
2023-05-17T03:02:44.139Z,16.18
2023-05-17T03:03:06.375Z,16.18
2023-05-17T03:03:28.648Z,16.19
2023-05-17T03:03:50.698Z,16.19
2023-05-17T03:04:12.668Z,16.19
2023-05-17T03:04:35.709Z,16.19
2023-05-17T03:04:57.979Z,16.19
2023-05-17T03:05:19.879Z,16.20
2023-05-17T03:05:44.532Z,16.21
2023-05-17T03:06:06.821Z,16.21
2023-05-17T03:06:30.531Z,16.21
2023-05-17T03:06:52.826Z,16.21
2023-05-17T03:07:14.612Z,16.22
2023-05-17T03:07:37.218Z,16.22
2023-05-17T03:07:59.207Z,16.22
2023-05-17T03:08:21.293Z,16.23
2023-05-17T03:08:43.274Z,16.23
2023-05-17T03:09:05.373Z,16.23
2023-05-17T03:09:29.884Z,16.24
2023-05-17T03:09:52.246Z,16.24
2023-05-17T03:10:14.193Z,16.24
2023-05-17T03:10:39.037Z,16.24
2023-05-17T03:11:01.866Z,16.25
2023-05-17T03:11:24.067Z,16.25
2023-05-17T03:11:46.353Z,16.26
2023-05-17T03:12:13.864Z,16.27
2023-05-17T03:12:35.672Z,16.28
2023-05-17T03:12:57.549Z,16.28
2023-05-17T03:13:23.032Z,16.29
2023-05-17T03:13:46.581Z,16.29
2023-05-17T03:14:08.928Z,16.30
2023-05-17T03:14:31.526Z,16.31
2023-05-17T03:14:53.422Z,16.31
2023-05-17T03:15:15.968Z,16.33
2023-05-17T03:15:40.870Z,16.33
2023-05-17T03:16:02.972Z,16.34
2023-05-17T03:16:24.852Z,16.34
2023-05-17T03:16:47.229Z,16.35
2023-05-17T03:17:09.227Z,16.35
2023-05-17T03:17:31.672Z,16.36
2023-05-17T03:17:54.710Z,16.38
2023-05-17T03:18:16.982Z,16.38
2023-05-17T03:18:39.273Z,16.38
2023-05-17T03:19:01.433Z,16.39
2023-05-17T03:19:24.204Z,16.39
2023-05-17T03:19:47.104Z,16.40
2023-05-17T03:20:09.616Z,16.41
2023-05-17T03:20:31.521Z,16.42
2023-05-17T03:20:53.448Z,16.42
2023-05-17T03:21:15.612Z,16.42
2023-05-17T03:21:37.534Z,16.43
2023-05-17T03:21:59.311Z,16.44
2023-05-17T03:22:21.193Z,16.44
2023-05-17T03:22:43.432Z,16.45
2023-05-17T03:23:05.175Z,16.46
2023-05-17T03:23:31.125Z,16.46
2023-05-17T03:23:54.958Z,16.48
2023-05-17T03:24:17.874Z,16.48
2023-05-17T03:24:39.856Z,16.49
2023-05-17T03:25:01.666Z,16.50
2023-05-17T03:25:23.638Z,16.51
2023-05-17T03:25:45.618Z,16.52
2023-05-17T03:26:07.423Z,16.53
2023-05-17T03:26:35.968Z,16.54
2023-05-17T03:26:57.928Z,16.54
2023-05-17T03:27:19.692Z,16.55
2023-05-17T03:27:41.777Z,16.56
2023-05-17T03:28:03.702Z,16.58
2023-05-17T03:28:25.805Z,16.58
2023-05-17T03:28:47.774Z,16.58
2023-05-17T03:29:10.271Z,16.59
2023-05-17T03:29:32.597Z,16.60
2023-05-17T03:29:54.488Z,16.61
2023-05-17T03:30:17.822Z,16.61
2023-05-17T03:30:40.842Z,16.62
2023-05-17T03:31:03.405Z,16.64
2023-05-17T03:31:27.352Z,16.64
2023-05-17T03:31:49.514Z,16.65
2023-05-17T03:32:11.608Z,16.65
2023-05-17T03:32:33.453Z,16.66
2023-05-17T03:32:55.647Z,16.67
2023-05-17T03:33:18.733Z,16.68
2023-05-17T03:33:40.942Z,16.68
2023-05-17T03:34:03.324Z,16.70
2023-05-17T03:34:26.292Z,16.71
2023-05-17T03:34:48.288Z,16.72
2023-05-17T03:35:10.383Z,16.73
2023-05-17T03:35:33.523Z,16.74
2023-05-17T03:35:55.375Z,16.75
2023-05-17T03:36:17.270Z,16.75
2023-05-17T03:36:40.548Z,16.76
2023-05-17T03:37:02.471Z,16.77
2023-05-17T03:37:24.663Z,16.79
2023-05-17T03:37:46.536Z,16.79
2023-05-17T03:38:08.463Z,16.81
2023-05-17T03:38:30.734Z,16.82
2023-05-17T03:38:52.490Z,16.83
2023-05-17T03:39:14.614Z,16.84
2023-05-17T03:39:37.316Z,16.85
2023-05-17T03:39:59.129Z,16.86
2023-05-17T03:40:21.086Z,16.88
2023-05-17T03:40:42.980Z,16.90
2023-05-17T03:41:04.897Z,16.91
2023-05-17T03:41:27.245Z,16.92
2023-05-17T03:41:49.082Z,16.94
2023-05-17T03:42:11.338Z,16.95
2023-05-17T03:42:33.122Z,16.96
2023-05-17T03:42:55.119Z,16.98
2023-05-17T03:43:16.884Z,16.99
2023-05-17T03:43:38.912Z,17.00
2023-05-17T03:44:01.719Z,17.02
2023-05-17T03:44:23.560Z,17.03
2023-05-17T03:44:46.070Z,17.05
2023-05-17T03:45:09.218Z,17.06
2023-05-17T03:45:31.388Z,17.08
2023-05-17T03:45:53.280Z,17.10
2023-05-17T03:46:15.059Z,17.12
2023-05-17T03:46:36.950Z,17.14
2023-05-17T03:46:59.428Z,17.15
2023-05-17T03:47:24.128Z,17.17
2023-05-17T03:47:46.525Z,17.19
2023-05-17T03:48:08.539Z,17.20
2023-05-17T03:48:30.494Z,17.21
2023-05-17T03:48:52.561Z,17.23
2023-05-17T03:49:14.527Z,17.25
2023-05-17T03:49:36.641Z,17.26
2023-05-17T03:49:58.452Z,17.29
2023-05-17T03:50:20.835Z,17.30
2023-05-17T03:50:42.813Z,17.32
2023-05-17T03:51:05.423Z,17.33
2023-05-17T03:51:28.132Z,17.35
2023-05-17T03:51:50.028Z,17.37
2023-05-17T03:52:12.934Z,17.38
2023-05-17T03:52:35.008Z,17.40
2023-05-17T03:52:56.788Z,17.42
2023-05-17T03:53:18.781Z,17.44
2023-05-17T03:53:43.716Z,17.44
2023-05-17T03:54:06.446Z,17.47
2023-05-17T03:54:28.335Z,17.49
2023-05-17T03:54:51.389Z,17.51
2023-05-17T03:55:13.339Z,17.52
2023-05-17T03:55:35.144Z,17.54
2023-05-17T03:55:57.011Z,17.55
2023-05-17T03:56:18.787Z,17.56
2023-05-17T03:56:40.674Z,17.58
2023-05-17T03:57:04.610Z,17.59
2023-05-17T03:57:26.810Z,17.61
2023-05-17T03:57:48.738Z,17.62
2023-05-17T03:58:10.781Z,17.63
2023-05-17T03:58:32.668Z,17.65
2023-05-17T03:58:54.437Z,17.66
2023-05-17T03:59:16.893Z,17.68
2023-05-17T03:59:38.746Z,17.69
2023-05-17T04:00:00.937Z,17.71
2023-05-17T04:00:24.168Z,17.72
2023-05-17T04:00:47.711Z,17.74
2023-05-17T04:01:10.312Z,17.76
2023-05-17T04:01:32.186Z,17.77
2023-05-17T04:01:54.046Z,17.78
2023-05-17T04:02:17.074Z,17.80
2023-05-17T04:02:39.092Z,17.82
2023-05-17T04:03:01.587Z,17.83
2023-05-17T04:03:23.432Z,17.86
2023-05-17T04:03:45.197Z,17.88
2023-05-17T04:04:07.167Z,17.89
2023-05-17T04:04:29.256Z,17.91
2023-05-17T04:04:51.576Z,17.92
2023-05-17T04:05:13.755Z,17.93
2023-05-17T04:05:36.397Z,17.94
2023-05-17T04:06:02.941Z,17.96
2023-05-17T04:06:24.865Z,17.98
2023-05-17T04:06:47.674Z,17.99
2023-05-17T04:07:11.050Z,18.01
2023-05-17T04:07:33.095Z,18.03
2023-05-17T04:07:54.974Z,18.05
2023-05-17T04:08:17.605Z,18.07
2023-05-17T04:08:39.524Z,18.08
2023-05-17T04:09:02.268Z,18.10
2023-05-17T04:09:24.128Z,18.11
2023-05-17T04:09:46.146Z,18.13
2023-05-17T04:10:08.236Z,18.14
2023-05-17T04:10:30.223Z,18.15
2023-05-17T04:10:51.947Z,18.17
2023-05-17T04:11:14.233Z,18.19
2023-05-17T04:11:36.428Z,18.20
2023-05-17T04:11:58.208Z,18.21
2023-05-17T04:12:19.980Z,18.22
2023-05-17T04:12:42.873Z,18.24
2023-05-17T04:13:04.789Z,18.24
2023-05-17T04:13:27.271Z,18.26
2023-05-17T04:13:49.318Z,18.27
2023-05-17T04:14:11.347Z,18.28
2023-05-17T04:14:33.548Z,18.29
2023-05-17T04:14:55.315Z,18.31
2023-05-17T04:15:17.245Z,18.32
2023-05-17T04:15:39.298Z,18.33
2023-05-17T04:16:01.417Z,18.35
2023-05-17T04:16:23.480Z,18.36
2023-05-17T04:16:45.675Z,18.37
2023-05-17T04:17:07.763Z,18.39
2023-05-17T04:17:30.303Z,18.40
2023-05-17T04:17:52.550Z,18.41
2023-05-17T04:18:14.552Z,18.42
2023-05-17T04:18:37.003Z,18.43
2023-05-17T04:19:00.259Z,18.44
2023-05-17T04:19:23.016Z,18.45
2023-05-17T04:19:45.189Z,18.46
2023-05-17T04:20:07.768Z,18.47
2023-05-17T04:20:30.068Z,18.47
2023-05-17T04:20:51.847Z,18.48
2023-05-17T04:21:13.737Z,18.49
2023-05-17T04:21:35.721Z,18.49
2023-05-17T04:21:57.860Z,18.49
2023-05-17T04:22:20.934Z,18.50
2023-05-17T04:22:42.742Z,18.51
2023-05-17T04:23:05.758Z,18.52
2023-05-17T04:23:28.640Z,18.53
2023-05-17T04:23:50.645Z,18.54
2023-05-17T04:24:12.444Z,18.54
2023-05-17T04:24:34.296Z,18.55
2023-05-17T04:24:56.390Z,18.55
2023-05-17T04:25:18.784Z,18.55
2023-05-17T04:25:41.434Z,18.56
2023-05-17T04:26:04.504Z,18.57
2023-05-17T04:26:27.209Z,18.58
2023-05-17T04:26:48.979Z,18.58
2023-05-17T04:27:11.518Z,18.59
2023-05-17T04:27:33.275Z,18.59
2023-05-17T04:27:55.124Z,18.60
2023-05-17T04:28:17.054Z,18.61
2023-05-17T04:28:40.165Z,18.62
2023-05-17T04:29:02.180Z,18.62
2023-05-17T04:29:24.142Z,18.63
2023-05-17T04:29:46.365Z,18.63
2023-05-17T04:30:08.731Z,18.63
2023-05-17T04:30:30.738Z,18.65
2023-05-17T04:30:53.224Z,18.65
2023-05-17T04:31:16.579Z,18.66
2023-05-17T04:31:38.765Z,18.67
2023-05-17T04:32:00.737Z,18.68
2023-05-17T04:32:23.221Z,18.68
2023-05-17T04:32:45.730Z,18.69
2023-05-17T04:33:07.602Z,18.69
2023-05-17T04:33:29.746Z,18.70
2023-05-17T04:33:52.562Z,18.70
2023-05-17T04:34:15.004Z,18.71
2023-05-17T04:34:37.923Z,18.71
2023-05-17T04:35:00.594Z,18.71
2023-05-17T04:35:22.411Z,18.72
2023-05-17T04:35:45.875Z,18.72
2023-05-17T04:36:08.557Z,18.71
2023-05-17T04:36:30.368Z,18.72
2023-05-17T04:36:53.242Z,18.71
2023-05-17T04:37:16.336Z,18.72
2023-05-17T04:37:40.636Z,18.72
2023-05-17T04:38:13.825Z,18.71
2023-05-17T04:38:35.921Z,18.71
2023-05-17T04:38:58.017Z,18.72
2023-05-17T04:39:22.660Z,18.71
2023-05-17T04:39:44.607Z,18.71
2023-05-17T04:40:07.480Z,18.71
2023-05-17T04:40:29.338Z,18.71
2023-05-17T04:40:51.371Z,18.71
2023-05-17T04:41:13.883Z,18.70
2023-05-17T04:41:37.965Z,18.71
2023-05-17T04:42:01.289Z,18.70
2023-05-17T04:42:23.370Z,18.70
2023-05-17T04:42:48.643Z,18.70
2023-05-17T04:43:10.624Z,18.69
2023-05-17T04:43:32.919Z,18.68
2023-05-17T04:43:54.935Z,18.68
2023-05-17T04:44:21.730Z,18.67
2023-05-17T04:44:44.136Z,18.66
2023-05-17T04:45:06.704Z,18.65
2023-05-17T04:45:28.765Z,18.65
2023-05-17T04:45:55.796Z,18.64
2023-05-17T04:46:17.686Z,18.64
2023-05-17T04:46:39.673Z,18.63
2023-05-17T04:47:02.492Z,18.63
2023-05-17T04:47:24.449Z,18.62
2023-05-17T04:47:47.554Z,18.61
2023-05-17T04:48:09.920Z,18.61
2023-05-17T04:48:32.725Z,18.61
2023-05-17T04:48:56.486Z,18.61
2023-05-17T04:49:19.120Z,18.61
2023-05-17T04:49:41.772Z,18.60
2023-05-17T04:50:04.915Z,18.61
2023-05-17T04:50:27.247Z,18.61
2023-05-17T04:50:49.225Z,18.62
2023-05-17T04:51:11.316Z,18.62
2023-05-17T04:51:33.120Z,18.63
2023-05-17T04:51:55.700Z,18.63
2023-05-17T04:52:17.896Z,18.65
2023-05-17T04:52:40.400Z,18.66
2023-05-17T04:53:02.689Z,18.67
2023-05-17T04:53:25.191Z,18.68
2023-05-17T04:53:47.280Z,18.69
2023-05-17T04:54:11.417Z,18.71
2023-05-17T04:54:33.526Z,18.72
2023-05-17T04:54:55.486Z,18.73
2023-05-17T04:55:17.592Z,18.75